M I D A S
Marine Information and Data Acquisition System
Tripno 441 of the Zeeleeuw from 2003-02-26 07:37:27 to 2003-02-26 17:27:41
Back to CruiseResearch ActivitiesStationsMapUnderway DataData graphs

EquipmentUnitsComment
TimeDGPSUTC
LatitudeDGPSDM.mWGS84
LongitudeDGPSDM.mWGS84
HeadingGyrodeg 
SOGDGPSknotsSpeed over ground
COGDGPSdegCourse over ground
DepthEcho soundermeters200 kHz
Missing or incorrect values are displayed as -999
Navigation data collected by the RV Zeeleeuw from 2003-02-26 07:37:27 to 2003-02-26 17:27:41
Time Latitude Longitude Heading SOG COG Depth
2003-02-26 07:38:28 51°13.595 2°56.1 113.7 0.8 291.6 8.3
2003-02-26 07:39:29 51°13.616 2°56.025 114 4.2 292.2 -999
2003-02-26 07:40:28 51°13.628 2°55.973 117.8 2.1 292.2 11.2
2003-02-26 07:41:29 51°13.66 2°55.877 122.7 4.8 300.5 -999
2003-02-26 07:42:28 51°13.692 2°55.781 112.5 3.5 292.8 12.6
2003-02-26 07:43:28 51°13.699 2°55.755 66.5 0.3 35.9 12.3
2003-02-26 07:44:28 51°13.693 2°55.742 46.1 1.1 227.8 6.8
2003-02-26 07:45:29 51°13.694 2°55.737 12.8 0.6 359.8 12.5
2003-02-26 07:46:28 51°13.728 2°55.717 338.1 3.3 333.9 4.8
2003-02-26 07:47:28 51°13.809 2°55.651 338.1 6.5 333.5 12.3
2003-02-26 07:48:28 51°13.924 2°55.566 340.2 7.8 336.4 12.1
2003-02-26 07:49:28 51°14.041 2°55.48 340.4 7.8 335.5 12
2003-02-26 07:50:29 51°14.161 2°55.388 336.5 7.9 332.3 12.1
2003-02-26 07:51:28 51°14.263 2°55.263 318.6 8 315.3 12.2
2003-02-26 07:52:29 51°14.345 2°55.094 308 8 303.7 12.4
2003-02-26 07:53:28 51°14.477 2°54.942 336.2 11.2 337.3 12.2
2003-02-26 07:54:28 51°14.656 2°54.831 339.5 11.7 340.4 11.6
2003-02-26 07:55:28 51°14.83 2°54.696 332.4 11.7 333.1 11.6
2003-02-26 07:56:28 51°15.005 2°54.565 336.7 11.7 337.3 10.8
2003-02-26 07:57:29 51°15.186 2°54.435 340.1 11.9 339.3 11
2003-02-26 07:58:28 51°15.37 2°54.337 336.9 11.7 337.8 11.6
2003-02-26 07:59:29 51°15.562 2°54.242 347.8 12 346.3 12.3
2003-02-26 08:00:28 51°15.756 2°54.195 349.6 12 349.6 13
2003-02-26 08:01:28 51°15.94 2°54.156 356.4 10.3 356.5 13.5
2003-02-26 08:02:28 51°16.103 2°54.15 11.7 9.6 6.1 13.8
2003-02-26 08:03:28 51°16.207 2°54.32 73.5 9.2 64.6 13.9
2003-02-26 08:04:28 51°16.271 2°54.515 39.3 7.1 45.3 13.7
2003-02-26 08:05:28 51°16.351 2°54.534 329.6 4.1 344.5 13.5
2003-02-26 08:06:28 51°16.383 2°54.48 266.5 2.3 284.2 13.8
2003-02-26 08:07:28 51°16.38 2°54.442 236.3 1.1 247.9 13.9
2003-02-26 08:08:28 51°16.364 2°54.423 215.2 1.5 205.3 14
2003-02-26 08:09:28 51°16.334 2°54.404 211.8 2 200.5 14
2003-02-26 08:10:28 51°16.31 2°54.376 232.4 1.7 229.3 14
2003-02-26 08:11:28 51°16.299 2°54.341 242.5 1.4 249.6 14
2003-02-26 08:12:28 51°16.293 2°54.311 241.9 1.1 255.3 14
2003-02-26 08:13:28 51°16.287 2°54.288 230.9 0.8 237.4 14.1
2003-02-26 08:14:28 51°16.278 2°54.275 222.5 0.6 215.6 14.1
2003-02-26 08:15:28 51°16.268 2°54.268 214.8 0.6 192.9 14.1
2003-02-26 08:16:28 51°16.26 2°54.269 208.6 0.6 171 14.1
2003-02-26 08:17:28 51°16.25 2°54.273 203.4 0.6 159.6 14
2003-02-26 08:18:28 51°16.241 2°54.281 199.6 0.6 150.6 14
2003-02-26 08:19:28 51°16.232 2°54.291 195.2 0.7 143.8 14
2003-02-26 08:20:29 51°16.223 2°54.303 191.6 0.8 136.4 14
2003-02-26 08:21:28 51°16.214 2°54.317 188.7 0.8 131.2 13.9
2003-02-26 08:22:28 51°16.206 2°54.333 185.4 0.9 135.7 13.9
2003-02-26 08:23:28 51°16.148 2°54.341 198 4.9 184.7 13.7
2003-02-26 08:24:29 51°16.072 2°54.227 249.6 7.3 245.9 13.7
2003-02-26 08:25:28 51°16.071 2°53.977 272.9 11.4 271.9 13.8
2003-02-26 08:26:29 51°16.162 2°53.659 306.4 13.6 305.7 14.1
2003-02-26 08:27:28 51°16.328 2°53.412 323.5 14.1 323.2 14.5
2003-02-26 08:28:28 51°16.521 2°53.195 324.3 14.2 324.7 14.3
2003-02-26 08:29:29 51°16.722 2°52.986 327.3 14.2 327.7 13.3
2003-02-26 08:30:28 51°16.917 2°52.79 326.9 14.1 327.6 11.5
2003-02-26 08:31:28 51°17.117 2°52.587 326.7 14.1 327.4 11.8
2003-02-26 08:32:28 51°17.315 2°52.381 325.9 14.2 326.7 12.5
2003-02-26 08:33:28 51°17.516 2°52.18 330.5 14.2 330.1 12.6
2003-02-26 08:34:28 51°17.729 2°52.01 333.6 14.3 333.5 12.5
2003-02-26 08:35:28 51°17.942 2°51.839 333.7 14.3 333.9 12.6
2003-02-26 08:36:29 51°18.162 2°51.674 338 14.4 337.5 13.5
2003-02-26 08:37:28 51°18.38 2°51.541 340 13.8 340.4 14.6
2003-02-26 08:38:28 51°18.525 2°51.367 285.3 8.7 293.8 15.7
2003-02-26 08:39:28 51°18.502 2°51.217 259.7 5 261.1 16
2003-02-26 08:40:29 51°18.497 2°51.108 250.3 3.4 257.8 16.1
2003-02-26 08:41:29 51°18.484 2°51.041 241.6 1.8 250 16.1
2003-02-26 08:42:28 51°18.477 2°51.024 225.7 0.6 227.5 16.1
2003-02-26 08:43:28 51°18.473 2°51.018 220.7 0.3 202.6 16
2003-02-26 08:44:28 51°18.471 2°51.019 215.2 0.1 121.5 16.1
2003-02-26 08:45:28 51°18.471 2°51.024 211.6 0.3 87.4 16.1
2003-02-26 08:46:29 51°18.471 2°51.033 208.1 0.4 74.2 16
2003-02-26 08:47:29 51°18.474 2°51.043 205.3 0.4 68.8 16.1
2003-02-26 08:48:28 51°18.477 2°51.055 202.7 0.5 63.3 16
2003-02-26 08:49:29 51°18.481 2°51.069 200.3 0.6 65.2 16.1
2003-02-26 08:50:29 51°18.485 2°51.083 198.8 0.6 67.8 16
2003-02-26 08:51:29 51°18.49 2°51.098 197.7 0.6 62.9 16.1
2003-02-26 08:52:29 51°18.486 2°51.113 186.4 1.7 160.4 16
2003-02-26 08:53:29 51°18.436 2°51.186 137.6 5.5 123.1 15.7
2003-02-26 08:54:29 51°18.444 2°51.408 75.4 11.1 69.1 15.3
2003-02-26 08:55:28 51°18.52 2°51.746 76.7 14.9 70.7 14.7
2003-02-26 08:56:28 51°18.606 2°52.121 74.2 15.1 68.6 14.2
2003-02-26 08:57:29 51°18.698 2°52.502 74.7 15.1 68.9 13.8
2003-02-26 08:58:29 51°18.788 2°52.876 74.9 15.1 69.3 13.6
2003-02-26 08:59:28 51°18.876 2°53.244 75.1 15.1 68.8 13.8
2003-02-26 09:00:29 51°18.968 2°53.625 74.9 15.1 68.6 13.8
2003-02-26 09:01:29 51°19.06 2°53.999 75.5 15.1 69.2 13.8
2003-02-26 09:02:29 51°19.15 2°54.374 75.3 15.1 68.7 13.9
2003-02-26 09:03:29 51°19.241 2°54.748 75.2 15.1 68.9 13.9
2003-02-26 09:04:29 51°19.33 2°55.123 75.5 15.1 69.1 13.8
2003-02-26 09:05:29 51°19.421 2°55.496 75.5 15.1 68.9 13.7
2003-02-26 09:06:29 51°19.511 2°55.867 75.3 15.1 68.8 13.6
2003-02-26 09:07:28 51°19.6 2°56.233 75.3 15 68.7 13.5
2003-02-26 09:08:29 51°19.694 2°56.612 75.2 15.1 68.7 13.3
2003-02-26 09:09:29 51°19.784 2°56.984 75.5 15 68.7 13.2
2003-02-26 09:10:29 51°19.875 2°57.356 75.3 15 68.7 13.1
2003-02-26 09:11:29 51°19.967 2°57.726 75.2 15 68.5 13
2003-02-26 09:12:29 51°20.058 2°58.097 75.1 15 68.5 12.8
2003-02-26 09:13:28 51°20.147 2°58.463 75.6 15 69.2 12.7
2003-02-26 09:14:29 51°20.238 2°58.839 75.4 14.9 68.8 12.6
2003-02-26 09:15:29 51°20.328 2°59.21 74.8 15 68.5 12.6
2003-02-26 09:16:29 51°20.418 2°59.582 75.6 14.9 69.2 12.5
2003-02-26 09:17:29 51°20.507 2°59.953 75.6 14.9 69.5 12.5
2003-02-26 09:18:29 51°20.595 3°0.323 75.2 14.9 69.1 12.4
2003-02-26 09:19:29 51°20.682 3°0.695 75.3 15 69 12.3
2003-02-26 09:20:29 51°20.77 3°1.068 75.1 15 69.1 12.3
2003-02-26 09:21:29 51°20.856 3°1.438 75.3 14.8 69.4 12.1
2003-02-26 09:22:29 51°20.943 3°1.809 75.3 14.9 69.4 12.2
2003-02-26 09:23:29 51°21.029 3°2.182 75.4 14.9 69.7 12.4
2003-02-26 09:24:29 51°21.117 3°2.554 75.2 14.9 69.6 12.5
2003-02-26 09:25:29 51°21.203 3°2.925 75.4 14.8 70.1 12.6
2003-02-26 09:26:29 51°21.288 3°3.294 75.3 14.8 70 12.6
2003-02-26 09:27:29 51°21.369 3°3.668 77.2 14.9 71.9 12.7
2003-02-26 09:28:29 51°21.446 3°4.046 77.1 15 71.9 12.7
2003-02-26 09:29:29 51°21.524 3°4.425 77.1 15 71.8 12.7
2003-02-26 09:30:29 51°21.6 3°4.805 78.9 14.9 73.1 12.8
2003-02-26 09:31:29 51°21.644 3°5.193 87.2 14.9 81.2 12.8
2003-02-26 09:32:29 51°21.685 3°5.583 86.8 14.8 80.7 12.8
2003-02-26 09:33:29 51°21.726 3°5.971 85.4 14.8 79.5 12.9
2003-02-26 09:34:29 51°21.777 3°6.356 77.6 14.8 71.8 13
2003-02-26 09:35:29 51°21.876 3°6.72 71.1 15 65.7 13.2
2003-02-26 09:36:29 51°21.976 3°7.087 71.7 15 66.4 13.5
2003-02-26 09:37:29 51°22.084 3°7.443 68.8 14.6 63.7 13.7
2003-02-26 09:38:29 51°22.184 3°7.768 69 13 63.8 13.9
2003-02-26 09:39:29 51°22.27 3°8.048 69.2 11.2 63.9 14.2
2003-02-26 09:40:29 51°22.356 3°8.327 69 11.9 63.9 14.5
2003-02-26 09:41:29 51°22.467 3°8.585 48 11.6 44.8 14.3
2003-02-26 09:42:29 51°22.649 3°8.688 12.7 12.7 12.1 14.7
2003-02-26 09:43:29 51°22.882 3°8.773 21.3 14.8 18.2 14.8
2003-02-26 09:44:29 51°23.082 3°8.999 52.2 15 47.7 14.8
2003-02-26 09:45:29 51°23.139 3°9.372 101.5 14.7 95.3 20.1
2003-02-26 09:46:29 51°23.093 3°9.755 106.8 14.6 101 16.7
2003-02-26 09:47:29 51°23.048 3°10.141 106.5 14.8 100.6 15.6
2003-02-26 09:48:29 51°23.002 3°10.527 106.6 14.9 101.2 15.1
2003-02-26 09:49:29 51°22.954 3°10.914 107.4 14.9 101.5 15.3
2003-02-26 09:50:29 51°22.906 3°11.299 107.3 14.7 101.5 15.2
2003-02-26 09:51:29 51°22.863 3°11.683 104.4 14.7 98.6 15.2
2003-02-26 09:52:29 51°22.832 3°12.071 101.9 14.7 96.4 14.8
2003-02-26 09:53:29 51°22.804 3°12.46 102.2 14.8 96.6 14.8
2003-02-26 09:54:29 51°22.787 3°12.819 96.1 12 90.4 14.2
2003-02-26 09:55:29 51°22.743 3°13.085 135.3 9.3 126.4 14
2003-02-26 09:56:29 51°22.627 3°13.182 160.4 7.7 152.9 14.2
2003-02-26 09:57:29 51°22.553 3°13.205 205.7 2.9 182.4 14.2
2003-02-26 09:58:29 51°22.546 3°13.215 234.5 0.7 87.3 14.2
2003-02-26 09:59:29 51°22.545 3°13.228 237.7 0.3 114.6 10
2003-02-26 10:00:29 51°22.543 3°13.232 249.4 0.2 170 14.2
2003-02-26 10:01:29 51°22.542 3°13.228 264.9 0.3 264 14.1
2003-02-26 10:02:29 51°22.544 3°13.216 281.6 0.6 301.2 14.1
2003-02-26 10:03:29 51°22.553 3°13.203 297.9 0.8 318.3 14.1
2003-02-26 10:04:29 51°22.568 3°13.19 316.1 1.1 339 14.2
2003-02-26 10:05:29 51°22.588 3°13.185 334.1 1.2 358.6 14.3
2003-02-26 10:06:29 51°22.609 3°13.189 349.1 1.2 11 14.2
2003-02-26 10:07:29 51°22.629 3°13.199 3 1.3 21.9 14.1
2003-02-26 10:08:29 51°22.665 3°13.229 32.7 3.6 33.5 14
2003-02-26 10:09:29 51°22.752 3°13.346 42.2 9.7 39.7 13.3
2003-02-26 10:10:29 51°22.917 3°13.562 42.7 14.1 39.3 12.6
2003-02-26 10:11:29 51°23.099 3°13.811 43.7 14.5 40.2 12.2
2003-02-26 10:12:29 51°23.283 3°14.062 44.3 14.5 41.1 12.7
2003-02-26 10:13:29 51°23.463 3°14.318 45 14.5 41.6 10.8
2003-02-26 10:14:29 51°23.643 3°14.573 44.7 14.5 40.8 12.5
2003-02-26 10:15:29 51°23.824 3°14.825 45.1 14.4 41.1 13.3
2003-02-26 10:16:29 51°24.004 3°15.079 45 14.4 41.4 13.4
2003-02-26 10:17:29 51°24.184 3°15.33 45.4 14.3 41.1 12.7
2003-02-26 10:18:29 51°24.366 3°15.579 45 14.4 40.2 17.2
2003-02-26 10:19:29 51°24.547 3°15.826 45 14.3 39.9 19.6
2003-02-26 10:20:29 51°24.726 3°16.076 49.3 14.3 43.5 19.2
2003-02-26 10:21:29 51°24.895 3°16.346 50.3 14.4 44.9 15.9
2003-02-26 10:22:29 51°25.057 3°16.631 54.3 14.6 49.8 15.1
2003-02-26 10:23:29 51°25.216 3°16.923 53.3 14.4 48.8 12.6
2003-02-26 10:24:29 51°25.375 3°17.208 53.6 14.3 48.4 11.3
2003-02-26 10:25:29 51°25.53 3°17.499 57.3 14.4 52.1 11.1
2003-02-26 10:26:29 51°25.673 3°17.798 57.9 13.3 52.5 10.9
2003-02-26 10:27:29 51°25.785 3°18.021 61.4 9.3 54.3 10.9
2003-02-26 10:28:28 51°25.873 3°18.085 355.9 4.8 358.1 10.7
2003-02-26 10:29:29 51°25.928 3°18.036 298.9 3.2 310 10.6
2003-02-26 10:30:29 51°25.94 3°17.975 257 2 274.5 10.5
2003-02-26 10:31:29 51°25.936 3°17.938 227.9 1.2 249.2 10.5
2003-02-26 10:32:29 51°25.928 3°17.918 209.6 0.8 227.7 10.5
2003-02-26 10:33:29 51°25.919 3°17.903 208.9 0.8 225.6 10.5
2003-02-26 10:34:28 51°25.91 3°17.888 209.7 0.8 226.3 10.5
2003-02-26 10:35:29 51°25.899 3°17.871 211.1 0.9 227.2 10.4
2003-02-26 10:36:29 51°25.889 3°17.854 211.4 0.9 229.2 10.4
2003-02-26 10:37:29 51°25.879 3°17.836 212 0.9 226.7 10.4
2003-02-26 10:38:29 51°25.845 3°17.772 240.8 6 239.5 10.4
2003-02-26 10:39:29 51°25.812 3°17.508 260.9 12.4 258.5 10
2003-02-26 10:40:29 51°25.781 3°17.157 263.9 13.6 262.8 9.8
2003-02-26 10:41:29 51°25.752 3°16.796 263.4 13.7 262.4 9.7
2003-02-26 10:42:29 51°25.723 3°16.433 263.4 13.8 262.8 9.6
2003-02-26 10:43:29 51°25.696 3°16.068 263.6 13.8 262.9 9.7
2003-02-26 10:44:29 51°25.67 3°15.704 264.2 13.8 263.6 9.7
2003-02-26 10:45:29 51°25.644 3°15.34 264.1 13.7 263.4 9.7
2003-02-26 10:46:29 51°25.618 3°14.976 263.9 13.8 263.4 9.5
2003-02-26 10:47:29 51°25.592 3°14.61 264.6 13.9 263.7 9.5
2003-02-26 10:48:29 51°25.565 3°14.243 264.1 13.9 263.6 9.6
2003-02-26 10:49:29 51°25.539 3°13.873 264.1 14 263.3 10.1
2003-02-26 10:50:29 51°25.518 3°13.5 266.2 14.1 265.2 10.4
2003-02-26 10:51:29 51°25.505 3°13.126 271.9 14.2 270.3 10.5
2003-02-26 10:52:29 51°25.531 3°12.753 280.8 14.1 279.4 10.3
2003-02-26 10:53:29 51°25.571 3°12.384 280.9 14 279.5 9.9
2003-02-26 10:54:28 51°25.61 3°12.022 280.8 14 279.9 9.5
2003-02-26 10:55:29 51°25.652 3°11.65 278.8 13.9 278.6 9.1
2003-02-26 10:56:29 51°25.734 3°11.327 328.8 13.8 323.6 8.6
2003-02-26 10:57:29 51°25.908 3°11.078 325 14.3 321.7 8.7
2003-02-26 10:58:29 51°26.054 3°10.794 291.1 13.9 291 9
2003-02-26 10:59:29 51°26.123 3°10.437 288.2 14.1 287.6 9.3
2003-02-26 11:00:29 51°26.201 3°10.08 289.9 14.1 289.3 9.5
2003-02-26 11:01:29 51°26.279 3°9.723 290.3 14.1 289.6 10.1
2003-02-26 11:02:29 51°26.357 3°9.367 289.6 14.2 289.1 10.4
2003-02-26 11:03:29 51°26.433 3°9.031 290.1 11.8 290.5 10.9
2003-02-26 11:04:29 51°26.479 3°8.806 282.7 7.6 286.1 11.7
2003-02-26 11:05:29 51°26.494 3°8.655 263.8 4.7 271.8 12.1
2003-02-26 11:06:29 51°26.486 3°8.564 241.6 2.9 255.6 12.3
2003-02-26 11:07:28 51°26.473 3°8.507 231.2 2.2 245.2 12.3
2003-02-26 11:08:29 51°26.461 3°8.453 242.5 2.1 257.3 12
2003-02-26 11:09:29 51°26.463 3°8.417 249.9 0.8 311.3 12
2003-02-26 11:10:29 51°26.471 3°8.399 249.6 0.9 305.5 12
2003-02-26 11:11:29 51°26.479 3°8.378 243.8 0.9 301.6 12.1
2003-02-26 11:12:29 51°26.487 3°8.36 234.6 0.8 302 12
2003-02-26 11:13:29 51°26.493 3°8.344 226.4 0.7 305.1 12
2003-02-26 11:14:28 51°26.499 3°8.331 219 0.6 293.8 12
2003-02-26 11:15:29 51°26.481 3°8.305 209.7 2.1 216.4 11.9
2003-02-26 11:16:29 51°26.477 3°8.211 285.6 5.2 289.6 11.6
2003-02-26 11:17:29 51°26.533 3°8.063 297.9 6.9 300.8 11.5
2003-02-26 11:18:29 51°26.595 3°7.9 301.1 7.3 303.1 11.5
2003-02-26 11:19:28 51°26.658 3°7.737 300.8 7.4 303 11.8
2003-02-26 11:20:29 51°26.723 3°7.565 295.7 7.4 298.2 12
2003-02-26 11:21:29 51°26.791 3°7.401 304.5 7.5 307 12.3
2003-02-26 11:22:29 51°26.853 3°7.232 300.4 7.4 300.8 12.6
2003-02-26 11:23:29 51°26.92 3°7.066 296.1 7.4 298.6 12.9
2003-02-26 11:24:29 51°26.982 3°6.896 301.2 7.4 302.3 13.2
2003-02-26 11:25:29 51°27.043 3°6.726 297.5 7.4 298.8 13.5
2003-02-26 11:26:29 51°27.109 3°6.559 302.7 7.4 302.9 13.8
2003-02-26 11:27:29 51°27.172 3°6.39 297.8 7.4 299 14.1
2003-02-26 11:28:29 51°27.239 3°6.224 303.4 7.4 304.3 14.3
2003-02-26 11:29:28 51°27.3 3°6.059 296.7 7.3 298.6 14.6
2003-02-26 11:30:29 51°27.367 3°5.893 300.9 7.3 302.9 14.8
2003-02-26 11:31:29 51°27.43 3°5.727 300.6 7.4 302.8 15
2003-02-26 11:32:29 51°27.5 3°5.567 300.4 7.3 302.5 15.4
2003-02-26 11:33:29 51°27.567 3°5.403 303.2 7.4 305.3 15.7
2003-02-26 11:34:29 51°27.636 3°5.243 297.3 7.2 301 15.6
2003-02-26 11:35:29 51°27.696 3°5.077 300.4 7.2 302.4 14.7
2003-02-26 11:36:29 51°27.764 3°4.917 295.6 7.1 299.8 14.9
2003-02-26 11:37:29 51°27.825 3°4.755 300.2 7.2 303.8 14.6
2003-02-26 11:38:29 51°27.895 3°4.599 298.3 7.1 302.8 16.2
2003-02-26 11:39:28 51°27.954 3°4.442 302 7.1 305.5 17.3
2003-02-26 11:40:28 51°28.018 3°4.286 294.3 6.8 298.4 18.6
2003-02-26 11:41:29 51°28.07 3°4.144 294.1 5.7 300.4 19.5
2003-02-26 11:42:28 51°28.115 3°4.023 297.9 5.3 304.7 20.3
2003-02-26 11:43:29 51°28.17 3°3.909 303.2 5.3 310.6 21.1
2003-02-26 11:44:29 51°28.224 3°3.806 298.8 4.5 308.6 21.9
2003-02-26 11:45:29 51°28.254 3°3.734 276.2 2.5 297.4 22.5
2003-02-26 11:46:29 51°28.264 3°3.691 255.8 1.3 285.6 22.6
2003-02-26 11:47:29 51°28.263 3°3.666 225.4 0.8 252.1 22.6
2003-02-26 11:48:29 51°28.254 3°3.653 209.3 0.6 204.7 22.6
2003-02-26 11:49:29 51°28.243 3°3.647 206.9 0.8 198.5 22.6
2003-02-26 11:50:28 51°28.227 3°3.632 224 1.4 220.9 22.5
2003-02-26 11:51:29 51°28.213 3°3.602 230.8 1.3 236.8 22.5
2003-02-26 11:52:29 51°28.2 3°3.573 225.8 1.3 233.6 22.5
2003-02-26 11:53:28 51°28.187 3°3.549 225.8 1.2 231.6 22.5
2003-02-26 11:54:29 51°28.181 3°3.517 243.1 1.2 261.6 22.5
2003-02-26 11:55:29 51°28.18 3°3.489 240.9 1 266.8 22.6
2003-02-26 11:56:29 51°28.179 3°3.467 233.3 0.7 262.4 22.6
2003-02-26 11:57:29 51°28.178 3°3.453 226.5 0.4 267.8 49.8
2003-02-26 11:58:29 51°28.177 3°3.445 221 0.3 257.4 49.3
2003-02-26 11:59:28 51°28.177 3°3.44 215.4 0.2 264 41
2003-02-26 12:00:29 51°28.178 3°3.436 211.6 0.1 278.9 44.6
2003-02-26 12:01:29 51°28.178 3°3.435 207.7 0.1 308.5 48.5
2003-02-26 12:02:29 51°28.18 3°3.434 205.5 0.1 328 45.7
2003-02-26 12:03:29 51°28.181 3°3.433 201.4 0.1 16.2 42
2003-02-26 12:04:29 51°28.183 3°3.434 197.4 0.1 11.5 49.9
2003-02-26 12:05:29 51°28.161 3°3.424 205.7 2.6 201.2 44.6
2003-02-26 12:06:29 51°28.112 3°3.326 247.5 7.7 245.4 41.4
2003-02-26 12:07:29 51°28.054 3°3.031 254.3 12.9 253.5 44.6
2003-02-26 12:08:29 51°27.993 3°2.692 255 13.2 253.7 43.6
2003-02-26 12:09:29 51°27.933 3°2.354 254.7 13.2 253.9 47.8
2003-02-26 12:10:29 51°27.882 3°2.01 258.4 13.3 257.6 24.4
2003-02-26 12:11:29 51°27.834 3°1.663 257.8 13.3 257.1 24.4
2003-02-26 12:12:29 51°27.787 3°1.318 258.6 13.2 258 24.2
2003-02-26 12:13:29 51°27.741 3°0.975 258.7 13.2 258 24
2003-02-26 12:14:29 51°27.693 3°0.632 258.4 13.2 257.8 23.3
2003-02-26 12:15:29 51°27.648 3°0.288 258.9 13.2 258.6 20.8
2003-02-26 12:16:29 51°27.6 2°59.943 259.1 13.3 258.1 19.1
2003-02-26 12:17:29 51°27.552 2°59.598 258.2 13.2 257.1 17
2003-02-26 12:18:29 51°27.505 2°59.253 258.3 13.2 257.6 19.7
2003-02-26 12:19:29 51°27.458 2°58.908 258.3 13.3 257.3 18
2003-02-26 12:20:29 51°27.408 2°58.563 257.9 13.3 256.6 17.7
2003-02-26 12:21:29 51°27.359 2°58.22 258.1 13.2 256.8 18.5
2003-02-26 12:22:29 51°27.309 2°57.877 258 13.1 256.3 21
2003-02-26 12:23:29 51°27.258 2°57.534 258.4 13.3 256.2 19.5
2003-02-26 12:24:29 51°27.205 2°57.188 257.7 13.4 255.6 24.9
2003-02-26 12:25:29 51°27.151 2°56.842 258.4 13.4 256.2 20.5
2003-02-26 12:26:28 51°27.098 2°56.502 258.4 13.4 256.2 24.1
2003-02-26 12:27:28 51°27.045 2°56.154 258.7 13.5 256.6 28.3
2003-02-26 12:28:29 51°26.991 2°55.802 258.3 13.3 256.3 29.5
2003-02-26 12:29:29 51°26.937 2°55.455 257.8 13.4 255.6 28.4
2003-02-26 12:30:29 51°26.883 2°55.108 258.3 13.4 256.3 26.4
2003-02-26 12:31:29 51°26.831 2°54.762 258.8 13.3 257.3 26.1
2003-02-26 12:32:28 51°26.781 2°54.42 258.1 13.4 256.2 20.5
2003-02-26 12:33:28 51°26.727 2°54.072 258 13.5 255.9 31.3
2003-02-26 12:34:29 51°26.67 2°53.716 258.5 13.6 256 31.7
2003-02-26 12:35:29 51°26.613 2°53.36 257.6 13.8 255.2 31.2
2003-02-26 12:36:29 51°26.556 2°53.007 258.1 13.8 255.5 29.2
2003-02-26 12:37:28 51°26.499 2°52.654 258.9 13.9 256.3 27.9
2003-02-26 12:38:29 51°26.448 2°52.287 260 13.8 257.6 27.3
2003-02-26 12:39:29 51°26.4 2°51.928 260.6 13.8 257.8 25.1
2003-02-26 12:40:28 51°26.35 2°51.573 260 13.9 257.7 26.8
2003-02-26 12:41:28 51°26.303 2°51.213 260.6 13.8 258 24.5
2003-02-26 12:42:28 51°26.256 2°50.856 259.8 13.7 257.3 23.6
2003-02-26 12:43:29 51°26.209 2°50.493 260.9 13.7 258.7 23.1
2003-02-26 12:44:29 51°26.163 2°50.138 260.5 13.7 258.5 23.4
2003-02-26 12:45:29 51°26.117 2°49.782 260.1 13.6 258.4 23.2
2003-02-26 12:46:28 51°26.074 2°49.445 260.5 11.3 259 23.4
2003-02-26 12:47:29 51°26.045 2°49.188 263.7 9 262.3 23.7
2003-02-26 12:48:29 51°26.02 2°48.959 263.6 8.6 261.6 23.5
2003-02-26 12:49:29 51°25.994 2°48.731 259.1 8.7 257.4 23.6
2003-02-26 12:50:29 51°25.979 2°48.503 265.7 8.2 263.8 23.6
2003-02-26 12:51:29 51°25.992 2°48.382 307.7 2.9 301.9 23.5
2003-02-26 12:52:29 51°26.009 2°48.355 341.3 1 322.6 22.7
2003-02-26 12:53:29 51°26.035 2°48.349 26.1 2.1 10.2 23.4
2003-02-26 12:54:29 51°26.062 2°48.404 90 3.2 66.8 23.6
2003-02-26 12:55:29 51°26.041 2°48.467 147.8 2.3 140.4 22.8
2003-02-26 12:56:29 51°26.034 2°48.471 171.7 0.2 218.9 21.9
2003-02-26 12:57:29 51°26.03 2°48.463 189.2 0.4 234.5 22.8
2003-02-26 12:58:29 51°26.026 2°48.452 202.3 0.6 245 23
2003-02-26 12:59:28 51°26.022 2°48.437 211.1 0.7 244 23.3
2003-02-26 13:00:29 51°26.017 2°48.419 214 0.7 249.9 23.3
2003-02-26 13:01:29 51°26.013 2°48.402 212.6 0.7 247.3 23.4
2003-02-26 13:02:29 51°26.008 2°48.384 210.7 0.7 245.9 23.4
2003-02-26 13:03:29 51°26.002 2°48.367 207.8 0.7 240.6 23.4
2003-02-26 13:04:29 51°25.995 2°48.35 205 0.7 236.7 23.3
2003-02-26 13:05:29 51°25.988 2°48.333 202.1 0.9 227.4 23.3
2003-02-26 13:06:29 51°25.965 2°48.321 174.5 1.8 184.7 23.4
2003-02-26 13:07:29 51°25.933 2°48.339 142.5 2.3 147.3 23.6
2003-02-26 13:08:29 51°25.856 2°48.372 189.9 7.2 185.4 23.3
2003-02-26 13:09:29 51°25.741 2°48.199 229.6 11.6 228.5 23.3
2003-02-26 13:10:29 51°25.597 2°47.926 231.2 13.9 230.2 23.3
2003-02-26 13:11:29 51°25.445 2°47.644 230 14.1 228.4 24.9
2003-02-26 13:12:29 51°25.287 2°47.368 228.6 13.9 225.9 25.2
2003-02-26 13:13:29 51°25.131 2°47.098 230 13.8 227.1 24.4
2003-02-26 13:14:29 51°24.975 2°46.828 230 13.9 227 24.5
2003-02-26 13:15:29 51°24.818 2°46.56 230.6 13.7 226.9 25.3
2003-02-26 13:16:29 51°24.661 2°46.293 229.7 13.7 226.3 25.6
2003-02-26 13:17:29 51°24.504 2°46.024 230.6 14 227 25.2
2003-02-26 13:18:29 51°24.346 2°45.756 229.3 13.8 226 25.7
2003-02-26 13:19:29 51°24.19 2°45.485 231 14 227.7 26.2
2003-02-26 13:20:29 51°24.031 2°45.213 230.5 14 226.7 25.7
2003-02-26 13:21:29 51°23.874 2°44.943 230.5 13.9 227.3 26.4
2003-02-26 13:22:29 51°23.715 2°44.671 230.2 14 227 26.8
2003-02-26 13:23:29 51°23.558 2°44.397 230.2 14 227.3 26.7
2003-02-26 13:24:29 51°23.401 2°44.124 230.5 13.9 227.6 26.8
2003-02-26 13:25:29 51°23.244 2°43.852 230 13.9 226.8 26.5
2003-02-26 13:26:29 51°23.088 2°43.583 230.8 13.8 227.6 24.4
2003-02-26 13:27:29 51°22.933 2°43.312 231 13.9 227.9 25.8
2003-02-26 13:28:29 51°22.777 2°43.04 230.1 13.9 227.6 26.3
2003-02-26 13:29:29 51°22.621 2°42.768 230.3 13.9 227.6 24.4
2003-02-26 13:30:29 51°22.465 2°42.494 230 13.8 227.4 25.8
2003-02-26 13:31:29 51°22.31 2°42.221 230 13.8 227.5 27
2003-02-26 13:32:29 51°22.155 2°41.946 230.8 14 228.5 26.2
2003-02-26 13:33:29 51°22.041 2°41.625 250.7 14 247.9 27.1
2003-02-26 13:34:29 51°21.957 2°41.277 251.8 14 249.1 27.4
2003-02-26 13:35:29 51°21.875 2°40.93 252.5 14 250.1 25.2
2003-02-26 13:36:29 51°21.794 2°40.581 251.5 14 249.3 24.8
2003-02-26 13:37:29 51°21.712 2°40.23 251.6 14.1 249.4 26.6
2003-02-26 13:38:29 51°21.63 2°39.875 252.7 14.3 250 26.4
2003-02-26 13:39:29 51°21.548 2°39.517 252.7 14.4 250.3 26.1
2003-02-26 13:40:29 51°21.466 2°39.157 252.2 14.4 250.2 25.5
2003-02-26 13:41:29 51°21.383 2°38.796 252.4 14.5 250.2 24.5
2003-02-26 13:42:29 51°21.302 2°38.432 252.5 14.6 250.7 25.7
2003-02-26 13:43:29 51°21.22 2°38.066 251.8 14.6 250.3 25
2003-02-26 13:44:29 51°21.139 2°37.701 251.9 14.6 250.2 24.2
2003-02-26 13:45:29 51°21.059 2°37.337 253 14.4 251.4 22.4
2003-02-26 13:46:29 51°21.01 2°36.959 266.3 14.7 263.6 23.1
2003-02-26 13:47:29 51°21.006 2°36.568 273.4 14.8 270.5 23.6
2003-02-26 13:48:29 51°21.017 2°36.175 277.4 14.9 273.6 24.5
2003-02-26 13:49:29 51°21.036 2°35.779 279.9 14.9 275.9 27.6
2003-02-26 13:50:29 51°21.065 2°35.386 282.4 14.9 278.5 30.4
2003-02-26 13:51:29 51°21.103 2°34.995 282.7 14.8 278.3 31.5
2003-02-26 13:52:29 51°21.135 2°34.608 281.8 14.6 277.2 30.3
2003-02-26 13:53:29 51°21.164 2°34.226 281.2 14.5 276.2 29.7
2003-02-26 13:54:29 51°21.2 2°33.843 283.8 14.6 279.6 31.9
2003-02-26 13:55:29 51°21.238 2°33.457 283.4 14.7 279 30.6
2003-02-26 13:56:29 51°21.279 2°33.072 283.6 14.7 279.4 27.9
2003-02-26 13:57:29 51°21.32 2°32.687 283.4 14.6 279.6 23.3
2003-02-26 13:58:29 51°21.361 2°32.304 283.4 14.6 279.3 18.1
2003-02-26 13:59:29 51°21.401 2°31.922 283.1 14.6 279.6 15
2003-02-26 14:00:29 51°21.44 2°31.538 283.2 14.7 278.9 14.4
2003-02-26 14:01:29 51°21.476 2°31.151 283.1 14.7 277.9 13.8
2003-02-26 14:02:29 51°21.484 2°30.76 262.4 14.8 259.7 25.8
2003-02-26 14:03:29 51°21.35 2°30.439 226.1 14.7 225.3 21.4
2003-02-26 14:04:29 51°21.16 2°30.19 217.3 14.6 217.7 22.1
2003-02-26 14:05:29 51°20.951 2°29.995 207.5 14.5 207.9 25.9
2003-02-26 14:06:28 51°20.74 2°29.821 206.8 14.5 206.9 27.6
2003-02-26 14:07:29 51°20.519 2°29.652 202.5 14.4 202.9 28.5
2003-02-26 14:08:29 51°20.294 2°29.53 183.6 13.9 186.4 29.3
2003-02-26 14:09:29 51°20.166 2°29.729 99.3 9.8 100.5 28.4
2003-02-26 14:10:29 51°20.139 2°29.876 125.4 4.2 126.2 23.2
2003-02-26 14:11:29 51°20.107 2°29.915 119 1.3 142.1 16.9
2003-02-26 14:12:29 51°20.103 2°29.906 100.8 0.4 230.3 17
2003-02-26 14:13:29 51°20.101 2°29.902 79.8 0.1 310.3 17.2
2003-02-26 14:14:29 51°20.105 2°29.9 66 0.4 347.3 18.1
2003-02-26 14:15:29 51°20.114 2°29.897 56.5 0.6 349.4 19.5
2003-02-26 14:16:29 51°20.124 2°29.895 56 0.7 354.9 20.1
2003-02-26 14:17:29 51°20.134 2°29.896 68.9 0.5 11.5 22.1
2003-02-26 14:18:29 51°20.141 2°29.9 81.9 0.4 35.8 21.3
2003-02-26 14:19:29 51°20.142 2°29.906 98.5 0.3 112.9 20.5
2003-02-26 14:20:29 51°20.136 2°29.912 114 0.5 157.4 19.9
2003-02-26 14:21:29 51°20.124 2°29.914 133.1 0.8 178.5 17.9
2003-02-26 14:22:29 51°20.107 2°29.909 153.5 1.2 194.6 17.4
2003-02-26 14:23:29 51°20.085 2°29.893 175.7 1.6 207.9 17.6
2003-02-26 14:24:29 51°20.052 2°29.853 213.1 3.6 223 19
2003-02-26 14:25:29 51°19.974 2°29.735 212.6 8.4 215.8 20.8
2003-02-26 14:26:29 51°19.854 2°29.551 246.3 10.8 242.4 26.2
2003-02-26 14:27:29 51°19.91 2°29.307 334.1 10.2 319.6 29.9
2003-02-26 14:28:29 51°20.065 2°29.319 34.5 9.6 25.9 30
2003-02-26 14:29:29 51°20.248 2°29.447 30.7 13.1 23.5 29.4
2003-02-26 14:30:29 51°20.451 2°29.588 30.4 13.4 23.1 28.9
2003-02-26 14:31:29 51°20.655 2°29.73 30.1 13.4 23 28.4
2003-02-26 14:32:29 51°20.858 2°29.873 30.9 13.3 23.9 27.2
2003-02-26 14:33:29 51°21.059 2°30.017 32.9 13.2 24.8 25.1
2003-02-26 14:34:29 51°21.249 2°30.187 36.5 13.1 29.6 22.6
2003-02-26 14:35:29 51°21.429 2°30.374 46.4 12.9 40.3 19.8
2003-02-26 14:36:29 51°21.561 2°30.639 62.1 12.8 57.6 31.6
2003-02-26 14:37:29 51°21.621 2°30.961 87.4 12.7 81.9 25.5
2003-02-26 14:38:29 51°21.583 2°31.298 105.4 12.9 104.3 18.3
2003-02-26 14:39:29 51°21.514 2°31.624 114.1 13.1 114 18.1
2003-02-26 14:40:29 51°21.405 2°31.922 122.7 13 122.3 14.7
2003-02-26 14:41:29 51°21.287 2°32.214 123.4 13.2 123.7 17.6
2003-02-26 14:42:29 51°21.158 2°32.499 126.1 13.3 126.7 23.1
2003-02-26 14:43:29 51°21.026 2°32.784 125.3 13.4 126.4 28.1
2003-02-26 14:44:29 51°20.892 2°33.068 125.8 13.4 127.2 29.4
2003-02-26 14:45:29 51°20.76 2°33.354 125.4 13.4 126.4 29.4
2003-02-26 14:46:29 51°20.62 2°33.636 129.2 13.6 130.1 30.1
2003-02-26 14:47:29 51°20.463 2°33.893 134.4 13.4 135.4 30
2003-02-26 14:48:29 51°20.307 2°34.143 133.6 13.3 134.8 29.9
2003-02-26 14:49:29 51°20.151 2°34.395 133 13.2 134.1 29.8
2003-02-26 14:50:29 51°19.998 2°34.643 134.2 13.1 134.4 25.8
2003-02-26 14:51:29 51°19.84 2°34.884 135.6 13.1 136.4 12.4
2003-02-26 14:52:29 51°19.682 2°35.123 135.1 13.2 136 15.2
2003-02-26 14:53:29 51°19.522 2°35.366 135.1 13.4 136.2 18.3
2003-02-26 14:54:29 51°19.36 2°35.614 135 13.5 135.4 20.2
2003-02-26 14:55:29 51°19.193 2°35.848 138.8 13.4 139.9 21.6
2003-02-26 14:56:29 51°19.02 2°36.074 139.3 13.4 140.7 21.2
2003-02-26 14:57:29 51°18.842 2°36.292 144.1 13.5 145.4 18.8
2003-02-26 14:58:29 51°18.651 2°36.478 149.4 13.5 150.1 18.7
2003-02-26 14:59:29 51°18.446 2°36.623 156.5 13.5 158.2 17.6
2003-02-26 15:00:29 51°18.235 2°36.753 161.3 13.6 162.6 15.4
2003-02-26 15:01:29 51°18.005 2°36.768 178.7 14 180.9 16.3
2003-02-26 15:02:28 51°17.774 2°36.76 179.5 14.1 182 19.9
2003-02-26 15:03:29 51°17.533 2°36.748 179.8 14.2 182.1 23
2003-02-26 15:04:29 51°17.297 2°36.723 184.8 14.3 186.7 25.2
2003-02-26 15:05:29 51°17.06 2°36.664 187.5 14.4 189.7 26
2003-02-26 15:06:28 51°16.856 2°36.606 187.3 10.2 191.3 26.3
2003-02-26 15:07:28 51°16.724 2°36.559 186.5 6.7 193.2 25.6
2003-02-26 15:08:28 51°16.643 2°36.537 164.8 3.6 182 25.4
2003-02-26 15:09:29 51°16.597 2°36.531 168.7 2.3 192.9 25.7
2003-02-26 15:10:29 51°16.562 2°36.536 127.4 1.6 158.6 25.6
2003-02-26 15:11:29 51°16.553 2°36.566 78.6 1.6 75.2 25.6
2003-02-26 15:12:28 51°16.572 2°36.619 68.3 2.8 58.9 26
2003-02-26 15:13:29 51°16.598 2°36.693 73.7 3.2 64.8 25.6
2003-02-26 15:14:28 51°16.603 2°36.729 90.7 0.7 95.6 25.6
2003-02-26 15:15:29 51°16.599 2°36.741 97.9 0.4 135.5 25.5
2003-02-26 15:16:28 51°16.594 2°36.744 101.2 0.3 180.1 25.6
2003-02-26 15:17:28 51°16.589 2°36.741 102.9 0.4 219.6 25.6
2003-02-26 15:18:29 51°16.584 2°36.732 103 0.5 236.3 25.7
2003-02-26 15:19:29 51°16.58 2°36.72 102.2 0.6 245 25.6
2003-02-26 15:20:29 51°16.576 2°36.706 100.7 0.6 251.5 25.8
2003-02-26 15:21:29 51°16.574 2°36.689 98.2 0.7 257.3 25.8
2003-02-26 15:22:29 51°16.571 2°36.671 95.4 0.7 258.2 25.8
2003-02-26 15:23:28 51°16.569 2°36.651 92.3 0.8 259.6 26
2003-02-26 15:24:29 51°16.566 2°36.63 91.3 0.8 259.6 26
2003-02-26 15:25:29 51°16.56 2°36.63 112.3 1.8 126.6 25.7
2003-02-26 15:26:29 51°16.483 2°36.636 203.2 7.5 205.6 25.8
2003-02-26 15:27:29 51°16.304 2°36.522 197 14 199 26.6
2003-02-26 15:28:29 51°16.075 2°36.398 196.7 14.6 198.9 26
2003-02-26 15:29:29 51°15.845 2°36.273 196.5 14.7 198.2 25.2
2003-02-26 15:30:29 51°15.615 2°36.146 196.2 14.6 198.3 21.6
2003-02-26 15:31:28 51°15.389 2°36.03 194.3 14.6 197.1 18.3
2003-02-26 15:32:29 51°15.154 2°35.912 194.5 14.5 197.5 16.2
2003-02-26 15:33:29 51°14.923 2°35.804 192.9 14.5 195.8 16.7
2003-02-26 15:34:29 51°14.691 2°35.699 193.4 14.5 196.3 17.1
2003-02-26 15:35:29 51°14.459 2°35.593 193 14.5 196.2 16.3
2003-02-26 15:36:29 51°14.228 2°35.509 183.4 14.1 187.1 13.2
2003-02-26 15:37:29 51°13.996 2°35.48 176 13.8 179.2 12.4
2003-02-26 15:38:29 51°13.809 2°35.633 125.9 12.6 127.9 15
2003-02-26 15:39:29 51°13.728 2°35.938 100.1 12.5 98.8 16.4
2003-02-26 15:40:29 51°13.771 2°36.26 76.6 12.6 71.9 18.2
2003-02-26 15:41:29 51°13.835 2°36.58 77.6 12.7 72.5 18.9
2003-02-26 15:42:29 51°13.89 2°36.905 79.9 12.7 75.1 19.3
2003-02-26 15:43:29 51°13.942 2°37.231 81.4 12.7 76.4 19.1
2003-02-26 15:44:29 51°13.985 2°37.56 82.3 12.6 78.7 19
2003-02-26 15:45:29 51°14.025 2°37.889 82.1 12.7 79 15.8
2003-02-26 15:46:29 51°14.039 2°38.225 92.1 12.7 90 16
2003-02-26 15:47:29 51°14.019 2°38.558 102.9 12.7 101.2 11.9
2003-02-26 15:48:29 51°13.903 2°38.841 136 13.3 137.4 12.3
2003-02-26 15:49:29 51°13.686 2°38.93 181.2 14.2 184.5 13.7
2003-02-26 15:50:29 51°13.455 2°38.826 202.5 14.6 203 12.9
2003-02-26 15:51:28 51°13.239 2°38.645 207.8 15 209 13.5
2003-02-26 15:52:29 51°13.022 2°38.439 211.3 15 211 13
2003-02-26 15:53:29 51°12.811 2°38.222 213.4 15.1 213.6 12.4
2003-02-26 15:54:29 51°12.601 2°38.002 212.7 15.1 212.8 12.2
2003-02-26 15:55:29 51°12.391 2°37.782 212.8 15.1 213.1 11.8
2003-02-26 15:56:29 51°12.181 2°37.562 213.2 15.1 213.2 11.5
2003-02-26 15:57:29 51°11.971 2°37.341 212.6 15.2 212.9 11.6
2003-02-26 15:58:29 51°11.76 2°37.126 212.8 15.1 212.6 11.6
2003-02-26 15:59:29 51°11.549 2°36.911 213.2 15 212.4 11.5
2003-02-26 16:00:29 51°11.338 2°36.695 213.3 15.1 212.4 11.4
2003-02-26 16:01:29 51°11.126 2°36.48 212.5 15.1 212.2 11.1
2003-02-26 16:02:29 51°10.908 2°36.281 210.1 15.2 209.6 10.8
2003-02-26 16:03:29 51°10.691 2°36.086 210 14.9 209.1 10.2
2003-02-26 16:04:29 51°10.461 2°35.966 196.7 14.7 196.1 9.9
2003-02-26 16:05:29 51°10.224 2°35.862 195.6 14.4 195.9 9.8
2003-02-26 16:06:29 51°10.003 2°35.917 150.7 13.6 154.1 16.9
2003-02-26 16:07:29 51°9.84 2°36.143 121.9 12.8 124.4 17
2003-02-26 16:08:29 51°9.792 2°36.464 93.3 12.6 90.9 17.1
2003-02-26 16:09:29 51°9.845 2°36.776 66.6 12.6 60.6 16.7
2003-02-26 16:10:29 51°9.934 2°37.08 74.3 12.7 69.2 16.5
2003-02-26 16:11:29 51°10.008 2°37.395 74.4 12.7 69.3 16.8
2003-02-26 16:12:29 51°10.083 2°37.709 74.2 12.7 69.2 16.6
2003-02-26 16:13:29 51°10.156 2°38.022 74.1 12.7 69.4 15.7
2003-02-26 16:14:29 51°10.23 2°38.335 74.1 12.7 69.5 15.2
2003-02-26 16:15:29 51°10.302 2°38.65 74.3 12.7 69.9 14.7
2003-02-26 16:16:29 51°10.377 2°38.964 74.1 12.7 69.2 15.2
2003-02-26 16:17:29 51°10.45 2°39.279 74.4 12.6 69.8 14.6
2003-02-26 16:18:29 51°10.524 2°39.591 74.1 12.6 69.4 14.2
2003-02-26 16:19:29 51°10.596 2°39.901 74 12.5 69.4 13.6
2003-02-26 16:20:29 51°10.668 2°40.211 74.4 12.5 69.8 13.1
2003-02-26 16:21:29 51°10.74 2°40.522 74.2 12.5 70 12.6
2003-02-26 16:22:29 51°10.812 2°40.834 74.6 12.6 70.2 12.1
2003-02-26 16:23:29 51°10.883 2°41.148 74.4 12.6 70.4 11.8
2003-02-26 16:24:29 51°10.953 2°41.462 74.2 12.6 70.3 11.7
2003-02-26 16:25:29 51°11.023 2°41.778 74.3 12.7 70.4 11.7
2003-02-26 16:26:29 51°11.075 2°42.041 85.6 7.2 81 11.9
2003-02-26 16:27:29 51°11.07 2°42.121 67.9 0.2 258.4 12
2003-02-26 16:28:29 51°11.072 2°42.109 34.1 0.7 290.8 11.6
2003-02-26 16:29:29 51°11.077 2°42.089 23.4 0.9 292.9 12
2003-02-26 16:30:29 51°11.083 2°42.065 19.1 1 294.6 12
2003-02-26 16:31:29 51°11.09 2°42.04 18.8 1 294.6 12
2003-02-26 16:32:29 51°11.096 2°42.015 23.4 1 294.3 12
2003-02-26 16:33:29 51°11.102 2°41.991 27.9 1 290.3 11.9
2003-02-26 16:34:29 51°11.108 2°41.968 32.4 0.9 290.2 11.9
2003-02-26 16:35:29 51°11.112 2°41.946 36.7 0.8 292.9 11.8
2003-02-26 16:36:29 51°11.131 2°41.985 83.3 4.3 77.6 11.8
2003-02-26 16:37:29 51°11.147 2°42.182 84.7 9.6 82.4 11.8
2003-02-26 16:38:29 51°11.172 2°42.494 85.4 12.5 83 11.9
2003-02-26 16:39:29 51°11.189 2°42.83 88 12.8 85.9 12.2
2003-02-26 16:40:29 51°11.205 2°43.169 88.2 12.8 85.7 12.2
2003-02-26 16:41:29 51°11.22 2°43.508 88.3 12.8 86 12.3
2003-02-26 16:42:29 51°11.235 2°43.848 88.3 12.8 85.9 12.2
2003-02-26 16:43:29 51°11.269 2°44.18 74.7 12.7 71.4 12.2
2003-02-26 16:44:29 51°11.348 2°44.497 73.2 12.9 69.1 12.2
2003-02-26 16:45:29 51°11.42 2°44.818 74.5 12.9 70.7 12.2
2003-02-26 16:46:29 51°11.49 2°45.14 74.7 12.9 70.6 12.2
2003-02-26 16:47:29 51°11.56 2°45.464 75 12.9 71.2 12.3
2003-02-26 16:48:29 51°11.631 2°45.787 74.6 12.9 70.6 12.3
2003-02-26 16:49:29 51°11.708 2°46.107 72.9 12.9 68.9 12.2
2003-02-26 16:50:29 51°11.782 2°46.425 73.2 12.8 69.3 12.4
2003-02-26 16:51:29 51°11.864 2°46.739 71.1 12.9 67.1 12.2
2003-02-26 16:52:29 51°11.948 2°47.054 70.4 12.9 66.3 12.2
2003-02-26 16:53:29 51°12.04 2°47.363 68.2 12.9 63.8 12.2
2003-02-26 16:54:29 51°12.134 2°47.669 67.7 12.9 63.6 11.9
2003-02-26 16:55:29 51°12.23 2°47.977 68.5 13 64.3 11.9
2003-02-26 16:56:29 51°12.326 2°48.287 67.5 13 63.2 11.7
2003-02-26 16:57:29 51°12.425 2°48.595 66.7 13 62 11.5
2003-02-26 16:58:29 51°12.522 2°48.903 67.2 13 62.8 11.5
2003-02-26 16:59:29 51°12.621 2°49.21 67.3 13 62.7 11.3
2003-02-26 17:00:29 51°12.72 2°49.517 66.1 13.1 62 11.2
2003-02-26 17:01:29 51°12.827 2°49.816 64.1 13 59.5 11.1
2003-02-26 17:02:29 51°12.937 2°50.112 64.2 12.9 59.6 11.1
2003-02-26 17:03:29 51°13.049 2°50.404 61.9 12.9 57.4 11
2003-02-26 17:04:29 51°13.165 2°50.692 62.1 12.9 57.5 10.9
2003-02-26 17:05:29 51°13.28 2°50.982 62.4 12.9 57.6 10.9
2003-02-26 17:06:29 51°13.395 2°51.274 62.4 13 58.3 10.8
2003-02-26 17:07:29 51°13.509 2°51.569 62.4 13 58 10.8
2003-02-26 17:08:29 51°13.626 2°51.874 62.4 13 58.3 10.6
2003-02-26 17:09:29 51°13.738 2°52.176 62.2 13 58.3 10.6
2003-02-26 17:10:29 51°13.85 2°52.46 62.2 13 58.4 10.5
2003-02-26 17:11:29 51°13.963 2°52.747 62.5 12.9 58.3 10.4
2003-02-26 17:12:29 51°14.076 2°53.039 62.4 12.9 58.4 10.1
2003-02-26 17:13:29 51°14.184 2°53.333 66.7 12.9 61.2 9.2
2003-02-26 17:14:29 51°14.277 2°53.633 62.8 12.3 59 15.4
2003-02-26 17:15:29 51°14.378 2°53.897 64.4 11.5 59.9 15.5
2003-02-26 17:16:29 51°14.447 2°54.176 79 11.4 74.5 15.2
2003-02-26 17:17:29 51°14.469 2°54.48 89.1 11.6 86.9 17.6
2003-02-26 17:18:29 51°14.445 2°54.786 106.3 11.9 105.1 17.8
2003-02-26 17:19:29 51°14.361 2°55.073 124 12 121.1 16.5
2003-02-26 17:20:29 51°14.249 2°55.282 140.3 8.4 137.1 10
2003-02-26 17:21:29 51°14.151 2°55.385 155.1 6.4 152 9.8
2003-02-26 17:22:29 51°14.062 2°55.453 157.7 5.5 155 9.8
2003-02-26 17:23:29 51°13.981 2°55.513 157.7 5.2 154.8 9.9
2003-02-26 17:24:29 51°13.904 2°55.569 158.9 5.1 155.5 9.8
2003-02-26 17:25:29 51°13.827 2°55.625 159.1 5.1 156.5 9.4
2003-02-26 17:26:29 51°13.757 2°55.694 140 4.8 139.8 9.9
2003-02-26 17:27:29 51°13.708 2°55.78 131.7 4.2 128.7 9.9